»·PEaware :: FDX5954 KPSP-KLAS

FDX5954 :: KPSP-KLAS

FLIGHT INFORMATION

Flight Status: Arrived
Operator:
Federal Express
More flights by this operator :: More flights under this callsign
Pilot: Joshua M. (19482)
Aircraft: BOEING 737-800
(B738)
More flights by this aircraft type
Origin: KPSP Palm Springs Intl
United States
Destination: KLAS McCarran Intl
United States
More flights between these airports :: More routes between these airports
Route: +CATH1 PSP V370 TNP KEPEC6
File this flight plan on PilotEdge
Remarks: Outdated FMC Default XPlane
Altitude:
(Current/Filed)
28,000ft
Speed:
(Current/Filed)
450kts
Departed: 25-Jul-18 09:09 PM
Arrived: 25-Jul-18 09:50 PM
Distance/Time
Traveled:
151nm/0:41
Distance/Time
To Go:
Arrived

Flight Plot

Page will automatically refresh every two minutes.

Flight plan parsing failed; only flown route is shown


Map Options




Map Legend


Flown Route
Filed Route
Departure Airport
Arrival Airport
Navaid (VOR, NDB)
Fix

Horizontal Profiles

Position Reports

Time Latitude Longitude Heading Altitude Ground
Speed
25-Jul-18 20:47 33.823456 -116.505881 253 485ft 0kts
25-Jul-18 20:48 33.822533 -116.506218 324 485ft 0kts
25-Jul-18 20:49 33.820992 -116.507534 37 485ft 0kts
25-Jul-18 20:50 33.820992 -116.507534 37 485ft 0kts
25-Jul-18 20:51 33.820992 -116.507534 37 485ft 0kts
25-Jul-18 20:52 33.820992 -116.507534 37 485ft 0kts
25-Jul-18 20:53 33.820758 -116.507576 10 485ft 1kts
25-Jul-18 20:54 33.820310 -116.507650 6 485ft 1kts
25-Jul-18 20:55 33.820247 -116.507671 37 485ft 0kts
25-Jul-18 20:56 33.820247 -116.507671 37 485ft 0kts
25-Jul-18 20:57 33.820247 -116.507671 37 485ft 0kts
25-Jul-18 20:58 33.820302 -116.507394 139 485ft 2kts
25-Jul-18 20:59 33.819841 -116.506965 137 485ft 0kts
25-Jul-18 21:00 33.819841 -116.506965 137 485ft 0kts
25-Jul-18 21:01 33.819841 -116.506965 137 485ft 0kts
25-Jul-18 21:02 33.819841 -116.506965 137 485ft 0kts
25-Jul-18 21:03 33.819834 -116.506957 137 485ft 0kts
25-Jul-18 21:04 33.819685 -116.505907 91 485ft 6kts
25-Jul-18 21:05 33.819676 -116.505710 93 485ft 0kts
25-Jul-18 21:06 33.819764 -116.501716 89 485ft 31kts
25-Jul-18 21:07 33.818509 -116.498999 90 485ft 9kts
25-Jul-18 21:08 33.819175 -116.498307 323 485ft 0kts
25-Jul-18 21:09 33.819175 -116.498307 323 485ft 0kts
25-Jul-18 21:10 33.827540 -116.505758 323 486ft 139kts
25-Jul-18 21:11 33.864769 -116.515535 44 2336ft 176kts
25-Jul-18 21:12 33.861919 -116.460408 110 4917ft 194kts
25-Jul-18 21:13 33.841502 -116.398700 110 7387ft 210kts
25-Jul-18 21:14 33.831468 -116.333208 76 9757ft 215kts
25-Jul-18 21:15 33.859284 -116.271474 58 12257ft 213kts
25-Jul-18 21:16 33.894372 -116.201591 58 13320ft 281kts
25-Jul-18 21:17 33.934705 -116.121900 57 15117ft 318kts
25-Jul-18 21:18 33.979194 -116.033992 57 17091ft 333kts
25-Jul-18 21:19 34.022236 -115.948761 57 18668ft 341kts
25-Jul-18 21:20 34.068137 -115.857645 57 20145ft 350kts
25-Jul-18 21:21 34.103880 -115.786569 55 21190ft 357kts
25-Jul-18 21:22 34.171877 -115.703277 41 22524ft 364kts
25-Jul-18 21:23 34.246490 -115.619048 41 23054ft 368kts
25-Jul-18 21:24 34.320985 -115.537444 29 23046ft 365kts
25-Jul-18 21:25 34.412774 -115.492113 17 23056ft 362kts
25-Jul-18 21:26 34.505934 -115.451226 17 23064ft 368kts
25-Jul-18 21:27 34.605412 -115.407778 17 23044ft 380kts
25-Jul-18 21:28 34.701100 -115.365913 17 23057ft 376kts
25-Jul-18 21:29 34.797085 -115.340895 347 23056ft 366kts
25-Jul-18 21:30 34.891035 -115.372135 341 21633ft 345kts
25-Jul-18 21:31 34.980412 -115.406498 341 19921ft 336kts
25-Jul-18 21:32 35.069739 -115.415282 1 18233ft 330kts
25-Jul-18 21:33 35.159254 -115.410366 1 16598ft 322kts
25-Jul-18 21:34 35.242391 -115.406426 1 15067ft 315kts
25-Jul-18 21:35 35.324314 -115.403067 1 13556ft 309kts
25-Jul-18 21:36 35.403996 -115.399057 11 12065ft 305kts
25-Jul-18 21:37 35.481639 -115.379281 11 10952ft 288kts
25-Jul-18 21:38 35.556358 -115.359481 11 9280ft 262kts
25-Jul-18 21:39 35.622547 -115.341082 11 7735ft 233kts
25-Jul-18 21:40 35.678297 -115.324710 11 7077ft 203kts
25-Jul-18 21:41 35.731970 -115.309016 4 7043ft 205kts
25-Jul-18 21:42 35.787828 -115.309464 353 7055ft 203kts
25-Jul-18 21:43 35.841156 -115.299601 16 7048ft 193kts
25-Jul-18 21:44 35.885136 -115.278922 23 6854ft 199kts
25-Jul-18 21:45 35.925402 -115.255788 22 5906ft 169kts
25-Jul-18 21:46 35.960106 -115.236023 22 5099ft 161kts
25-Jul-18 21:47 35.992772 -115.217423 22 4300ft 159kts
25-Jul-18 21:48 36.027816 -115.197453 22 3442ft 157kts
25-Jul-18 21:49 36.056535 -115.181439 23 2668ft 157kts
25-Jul-18 21:50 36.084965 -115.164760 22 2190ft 140kts
25-Jul-18 21:51 36.098581 -115.157168 337 2189ft 10kts
25-Jul-18 21:52 36.099078 -115.158011 294 2189ft 0kts
25-Jul-18 21:53 36.099407 -115.159607 276 2189ft 2kts
25-Jul-18 21:54 36.099458 -115.159724 307 2189ft 0kts

Navigation Log

Ident Type
Flight plan parsing failed, navigation log unavailable